createdAt,value
2018-08-16T00:01:49.797Z,18.96
2018-08-16T00:04:18.761Z,18.98
2018-08-16T00:06:50.194Z,18.95
2018-08-16T00:09:19.106Z,18.91
2018-08-16T00:11:48.138Z,18.75
2018-08-16T00:14:16.980Z,18.76
2018-08-16T00:16:45.945Z,18.79
2018-08-16T00:19:14.872Z,18.78
2018-08-16T00:21:45.527Z,18.74
2018-08-16T00:24:14.530Z,18.75
2018-08-16T00:26:43.453Z,18.63
2018-08-16T00:29:12.388Z,18.64
2018-08-16T00:31:41.273Z,19.02
2018-08-16T00:34:10.326Z,18.80
2018-08-16T00:36:39.234Z,18.76
2018-08-16T00:39:08.764Z,18.71
2018-08-16T00:41:37.653Z,18.62
2018-08-16T00:44:06.575Z,18.63
2018-08-16T00:46:35.500Z,18.62
2018-08-16T00:49:04.490Z,18.66
2018-08-16T00:51:33.413Z,18.61
2018-08-16T00:54:02.320Z,18.61
2018-08-16T00:56:31.292Z,18.44
2018-08-16T00:59:00.341Z,18.55
2018-08-16T01:01:29.246Z,18.90
2018-08-16T01:03:58.189Z,18.70
2018-08-16T01:06:27.158Z,18.68
2018-08-16T01:08:56.059Z,18.66
2018-08-16T01:11:24.948Z,18.56
2018-08-16T01:13:53.880Z,18.54
2018-08-16T01:16:22.793Z,18.58
2018-08-16T01:18:51.740Z,18.41
2018-08-16T01:21:20.696Z,18.37
2018-08-16T01:23:49.635Z,18.27
2018-08-16T01:26:18.525Z,18.68
2018-08-16T01:28:47.479Z,18.40
2018-08-16T01:31:16.412Z,18.36
2018-08-16T01:33:45.268Z,18.71
2018-08-16T01:36:14.142Z,18.29
2018-08-16T01:38:43.033Z,18.27
2018-08-16T01:41:11.954Z,18.36
2018-08-16T01:43:40.829Z,18.08
2018-08-16T01:46:11.960Z,18.15
2018-08-16T01:48:40.950Z,18.08
2018-08-16T01:51:09.888Z,18.50
2018-08-16T01:53:38.787Z,18.25
2018-08-16T01:56:07.769Z,18.21
2018-08-16T01:58:39.355Z,18.15
2018-08-16T02:01:08.120Z,18.09
2018-08-16T02:03:37.007Z,18.11
2018-08-16T02:06:05.993Z,18.12
2018-08-16T02:08:36.680Z,18.04
2018-08-16T02:11:03.988Z,18.04
2018-08-16T02:13:32.878Z,18.00
2018-08-16T02:16:01.784Z,17.92
2018-08-16T02:18:30.896Z,17.89
2018-08-16T02:20:59.856Z,17.88
2018-08-16T02:23:28.842Z,17.87
2018-08-16T02:26:00.148Z,17.85
2018-08-16T02:28:29.138Z,17.90
2018-08-16T02:30:58.054Z,17.76
2018-08-16T02:33:27.073Z,17.82
2018-08-16T02:35:55.966Z,17.75
2018-08-16T02:38:24.896Z,18.12
2018-08-16T02:40:53.778Z,17.91
2018-08-16T02:43:22.668Z,17.89
2018-08-16T02:45:54.338Z,17.87
2018-08-16T02:48:25.177Z,17.87
2018-08-16T02:50:54.236Z,17.81
2018-08-16T02:53:23.078Z,17.76
2018-08-16T02:55:52.037Z,17.77
2018-08-16T02:58:26.152Z,18.07
2018-08-16T03:00:54.989Z,18.19
2018-08-16T03:03:23.908Z,17.81
2018-08-16T03:05:52.983Z,17.82
2018-08-16T03:08:21.922Z,17.84
2018-08-16T03:10:50.869Z,17.76
2018-08-16T03:13:20.050Z,17.73
2018-08-16T03:15:48.841Z,17.69
2018-08-16T03:18:19.792Z,17.70
2018-08-16T03:20:48.828Z,17.68
2018-08-16T03:23:17.774Z,17.64
2018-08-16T03:25:46.728Z,17.89
2018-08-16T03:28:15.569Z,17.66
2018-08-16T03:30:47.043Z,17.51
2018-08-16T03:33:16.037Z,17.29
2018-08-16T03:35:45.059Z,17.44
2018-08-16T03:38:14.004Z,17.49
2018-08-16T03:40:42.909Z,17.45
2018-08-16T03:43:14.397Z,17.46
2018-08-16T03:45:43.426Z,17.45
2018-08-16T03:48:12.302Z,17.47
2018-08-16T03:50:41.199Z,17.35
2018-08-16T03:53:12.037Z,17.43
2018-08-16T03:55:40.989Z,17.37
2018-08-16T03:58:09.968Z,17.30
2018-08-16T04:00:38.929Z,17.25
2018-08-16T04:03:07.863Z,17.25
2018-08-16T04:05:36.726Z,17.24
2018-08-16T04:08:05.738Z,17.23
2018-08-16T04:10:36.608Z,17.22
2018-08-16T04:13:08.484Z,17.25
2018-08-16T04:15:37.430Z,17.17
2018-08-16T04:18:08.391Z,17.59
2018-08-16T04:20:37.709Z,17.31
2018-08-16T04:23:06.586Z,17.32
2018-08-16T04:25:35.563Z,17.25
2018-08-16T04:28:06.480Z,17.24
2018-08-16T04:30:35.426Z,17.25
2018-08-16T04:33:04.556Z,17.21
2018-08-16T04:35:33.507Z,17.17
2018-08-16T04:38:02.461Z,17.27
2018-08-16T04:40:31.339Z,17.28
2018-08-16T04:43:00.285Z,17.28
2018-08-16T04:45:31.517Z,17.24
2018-08-16T04:48:00.441Z,17.26
2018-08-16T04:50:29.363Z,17.33
2018-08-16T04:52:58.259Z,17.29
2018-08-16T04:55:27.236Z,17.35
2018-08-16T04:57:56.154Z,17.26
2018-08-16T05:00:25.069Z,17.30
2018-08-16T05:02:56.031Z,17.36
2018-08-16T05:05:22.821Z,17.44
2018-08-16T05:07:51.700Z,17.46
2018-08-16T05:10:20.606Z,17.41
2018-08-16T05:12:49.567Z,17.45
2018-08-16T05:15:18.386Z,17.38
2018-08-16T05:17:47.376Z,17.36
2018-08-16T05:20:19.015Z,17.39
2018-08-16T05:22:50.316Z,17.40
2018-08-16T05:25:19.156Z,17.45
2018-08-16T05:27:48.119Z,17.53
2018-08-16T05:30:17.137Z,17.46
2018-08-16T05:32:46.112Z,17.47
2018-08-16T05:35:15.207Z,17.53
2018-08-16T05:37:44.129Z,17.54
2018-08-16T05:40:13.003Z,17.59
2018-08-16T05:42:42.852Z,17.49
2018-08-16T05:45:12.160Z,17.60
2018-08-16T05:47:41.147Z,17.74
2018-08-16T05:50:11.955Z,17.57
2018-08-16T05:52:41.425Z,17.46
2018-08-16T05:55:10.379Z,17.65
2018-08-16T05:57:39.599Z,17.64
2018-08-16T06:00:16.460Z,17.77
2018-08-16T06:02:45.442Z,17.86
2018-08-16T06:05:14.387Z,17.87
2018-08-16T06:07:43.457Z,17.99
2018-08-16T06:10:12.384Z,18.13
2018-08-16T06:12:41.411Z,18.11
2018-08-16T06:15:10.638Z,18.26
2018-08-16T06:17:39.566Z,18.46
2018-08-16T06:20:10.268Z,18.65
2018-08-16T06:22:41.654Z,18.69
2018-08-16T06:25:12.771Z,18.74
2018-08-16T06:27:42.178Z,18.79
2018-08-16T06:30:20.674Z,18.61
2018-08-16T06:32:49.561Z,19.18
2018-08-16T06:35:18.446Z,20.51
2018-08-16T06:37:47.322Z,20.89
2018-08-16T06:40:17.376Z,19.74
2018-08-16T06:42:47.407Z,19.94
2018-08-16T06:45:16.306Z,19.74
2018-08-16T06:47:45.209Z,19.86
2018-08-16T06:50:14.114Z,19.72
2018-08-16T06:52:43.194Z,20.12
2018-08-16T06:55:12.053Z,19.85
2018-08-16T06:57:40.918Z,20.12
2018-08-16T07:00:09.852Z,19.85
2018-08-16T07:02:38.715Z,19.97
2018-08-16T07:05:07.943Z,20.54
2018-08-16T07:07:37.196Z,22.48
2018-08-16T07:10:07.899Z,24.91
2018-08-16T07:12:37.129Z,25.72
2018-08-16T07:15:08.478Z,25.07
2018-08-16T07:17:37.396Z,27.31
2018-08-16T07:20:06.913Z,27.89
2018-08-16T07:22:35.880Z,28.65
2018-08-16T07:25:05.203Z,28.50
2018-08-16T07:27:34.148Z,29.51
2018-08-16T07:30:03.204Z,29.84
2018-08-16T07:32:34.341Z,30.56
2018-08-16T07:35:03.570Z,29.97
2018-08-16T07:37:32.425Z,30.95
2018-08-16T07:40:03.648Z,31.96
2018-08-16T07:42:37.148Z,32.25
2018-08-16T07:45:07.820Z,30.32
2018-08-16T07:47:36.869Z,29.13
2018-08-16T07:50:07.204Z,31.67
2018-08-16T07:52:36.138Z,32.08
2018-08-16T07:55:05.304Z,32.05
2018-08-16T07:57:34.222Z,32.35
2018-08-16T08:00:03.579Z,32.98
2018-08-16T08:02:32.462Z,32.75
2018-08-16T08:05:01.346Z,32.39
2018-08-16T08:07:30.249Z,32.98
2018-08-16T08:09:59.093Z,31.79
2018-08-16T08:12:28.042Z,33.13
2018-08-16T08:14:56.929Z,31.72
2018-08-16T08:17:25.823Z,30.06
2018-08-16T08:19:54.689Z,30.85
2018-08-16T08:22:23.601Z,31.76
2018-08-16T08:24:55.573Z,32.29
2018-08-16T08:27:24.466Z,32.46
2018-08-16T08:29:55.893Z,32.79
2018-08-16T08:32:25.423Z,31.44
2018-08-16T08:34:54.280Z,30.07
2018-08-16T08:40:46.434Z,28.83
2018-08-16T08:43:51.882Z,28.07
2018-08-16T08:46:20.737Z,27.23
2018-08-16T08:48:49.570Z,28.95
2018-08-16T08:51:18.417Z,29.57
2018-08-16T08:54:51.373Z,29.60
2018-08-16T08:57:56.617Z,29.63
2018-08-16T09:00:25.511Z,29.17
2018-08-16T09:02:54.985Z,27.98
2018-08-16T09:05:23.905Z,28.85
2018-08-16T09:07:55.108Z,27.79
2018-08-16T09:11:02.846Z,27.70
2018-08-16T09:14:08.923Z,29.34
2018-08-16T09:16:39.253Z,27.94
2018-08-16T09:19:09.211Z,26.36
2018-08-16T09:21:38.212Z,26.99
2018-08-16T09:24:07.289Z,27.51
2018-08-16T09:26:40.274Z,26.65
2018-08-16T09:29:49.923Z,27.43
2018-08-16T09:32:55.353Z,27.45
2018-08-16T09:35:24.772Z,27.73
2018-08-16T09:37:53.995Z,28.12
2018-08-16T09:40:23.228Z,26.74
2018-08-16T09:42:52.239Z,28.51
2018-08-16T09:46:11.347Z,29.49
2018-08-16T09:48:43.948Z,27.87
2018-08-16T09:51:19.173Z,27.55
2018-08-16T09:53:48.099Z,26.92
2018-08-16T09:56:16.933Z,26.55
2018-08-16T09:58:45.797Z,26.40
2018-08-16T10:01:14.620Z,26.22
2018-08-16T10:03:43.540Z,25.84
2018-08-16T10:06:12.509Z,26.29
2018-08-16T10:08:41.467Z,26.33
2018-08-16T10:11:10.580Z,25.69
2018-08-16T10:13:55.354Z,25.57
2018-08-16T10:16:24.300Z,25.04
2018-08-16T10:18:53.249Z,25.04
2018-08-16T10:21:22.047Z,24.36
2018-08-16T10:23:50.908Z,24.33
2018-08-16T10:26:19.747Z,24.80
2018-08-16T10:28:48.573Z,24.76
2018-08-16T10:31:17.417Z,24.67
2018-08-16T10:33:46.248Z,24.42
2018-08-16T10:36:15.155Z,24.82
2018-08-16T10:38:43.915Z,25.45
2018-08-16T10:41:12.819Z,24.95
2018-08-16T10:43:41.671Z,24.80
2018-08-16T10:46:10.508Z,24.75
2018-08-16T10:48:39.354Z,24.68
2018-08-16T10:51:08.211Z,24.56
2018-08-16T10:53:37.135Z,24.29
2018-08-16T10:56:06.067Z,23.80
2018-08-16T10:58:34.932Z,24.21
2018-08-16T11:01:03.750Z,24.02
2018-08-16T11:03:32.629Z,24.34
2018-08-16T11:06:01.487Z,24.22
2018-08-16T11:08:30.315Z,24.01
2018-08-16T11:10:59.182Z,23.90
2018-08-16T11:13:28.022Z,24.04
2018-08-16T11:15:56.882Z,24.26
2018-08-16T11:18:25.740Z,24.02
2018-08-16T11:20:54.631Z,23.97
2018-08-16T11:23:23.503Z,24.14
2018-08-16T11:25:52.342Z,24.70
2018-08-16T11:28:21.208Z,24.36
2018-08-16T11:30:50.136Z,24.33
2018-08-16T11:33:19.082Z,24.79
2018-08-16T11:35:48.065Z,24.54
2018-08-16T11:38:16.849Z,24.31
2018-08-16T11:40:45.923Z,24.55
2018-08-16T11:43:17.963Z,24.10
2018-08-16T11:45:47.029Z,24.05
2018-08-16T11:48:23.512Z,24.40
2018-08-16T11:50:52.423Z,24.88
2018-08-16T11:53:21.253Z,24.78
2018-08-16T11:55:50.192Z,24.75
2018-08-16T11:58:19.131Z,24.88
2018-08-16T12:00:47.996Z,25.02
2018-08-16T12:03:16.842Z,25.26
2018-08-16T12:05:46.046Z,25.60
2018-08-16T12:08:15.056Z,26.18
2018-08-16T12:10:44.220Z,25.97
2018-08-16T12:13:13.297Z,26.21
2018-08-16T12:15:42.617Z,26.16
2018-08-16T12:18:11.639Z,26.26
2018-08-16T12:20:40.674Z,26.29
2018-08-16T12:23:09.737Z,26.36
2018-08-16T12:25:38.717Z,26.34
2018-08-16T12:28:10.777Z,25.96
2018-08-16T12:30:51.197Z,25.76
2018-08-16T12:33:19.892Z,25.63
2018-08-16T12:35:48.737Z,25.89
2018-08-16T12:38:17.687Z,26.13
2018-08-16T12:40:46.632Z,25.66
2018-08-16T12:43:15.604Z,25.91
2018-08-16T12:45:44.516Z,26.15
2018-08-16T12:48:13.386Z,26.04
2018-08-16T12:50:42.361Z,25.81
2018-08-16T12:53:11.212Z,26.25
2018-08-16T12:55:40.055Z,26.04
2018-08-16T12:58:08.899Z,26.08
2018-08-16T13:00:37.750Z,25.81
2018-08-16T13:03:06.684Z,25.59
2018-08-16T13:05:35.683Z,25.80
2018-08-16T13:08:04.487Z,26.09
2018-08-16T13:10:33.424Z,26.17
2018-08-16T13:13:02.324Z,25.94
2018-08-16T13:15:32.867Z,25.77
2018-08-16T13:18:00.419Z,26.22
2018-08-16T13:20:31.757Z,26.34
2018-08-16T13:23:02.959Z,26.38
2018-08-16T13:25:36.595Z,26.59
2018-08-16T13:28:05.459Z,26.62
2018-08-16T13:30:34.306Z,26.69
2018-08-16T13:33:03.121Z,26.75
2018-08-16T13:35:33.728Z,27.01
2018-08-16T13:38:00.914Z,27.11
2018-08-16T13:40:30.207Z,27.08
2018-08-16T13:42:59.155Z,26.94
2018-08-16T13:45:28.134Z,26.68
2018-08-16T13:47:56.879Z,26.85
2018-08-16T13:50:25.783Z,26.85
2018-08-16T13:52:54.615Z,26.64
2018-08-16T13:55:23.513Z,26.45
2018-08-16T13:57:52.472Z,26.99
2018-08-16T14:00:21.403Z,26.87
2018-08-16T14:02:57.610Z,26.71
2018-08-16T14:08:02.651Z,26.75
2018-08-16T14:10:37.707Z,26.56
2018-08-16T14:13:06.629Z,26.41
2018-08-16T14:15:35.492Z,26.56
2018-08-16T14:18:04.536Z,26.72
2018-08-16T14:20:33.416Z,26.44
2018-08-16T14:23:02.269Z,26.32
2018-08-16T14:25:31.106Z,26.18
2018-08-16T14:27:59.997Z,26.03
2018-08-16T14:30:28.858Z,26.03
2018-08-16T14:32:57.696Z,25.86
2018-08-16T14:35:26.555Z,25.67
2018-08-16T14:37:55.636Z,25.91
2018-08-16T14:40:24.882Z,26.01
2018-08-16T14:42:54.017Z,26.25
2018-08-16T14:45:23.155Z,26.44
2018-08-16T14:47:52.311Z,26.63
2018-08-16T14:50:21.122Z,26.36
2018-08-16T14:52:50.255Z,26.14
2018-08-16T14:55:19.125Z,26.16
2018-08-16T14:57:47.998Z,26.29
2018-08-16T15:00:16.869Z,26.31
2018-08-16T15:02:45.734Z,26.54
2018-08-16T15:05:14.668Z,26.85
2018-08-16T15:07:43.526Z,26.61
2018-08-16T15:10:12.372Z,26.68
2018-08-16T15:12:41.231Z,26.81
2018-08-16T15:15:10.213Z,26.82
2018-08-16T15:17:39.184Z,26.74
2018-08-16T15:20:08.382Z,26.98
2018-08-16T15:22:37.469Z,26.78
2018-08-16T15:25:06.643Z,26.82
2018-08-16T15:27:36.172Z,26.85
2018-08-16T15:30:14.625Z,26.88
2018-08-16T15:32:44.740Z,26.83
2018-08-16T15:35:13.597Z,26.59
2018-08-16T15:37:42.524Z,26.20
2018-08-16T15:40:11.377Z,26.09
2018-08-16T15:42:40.239Z,25.87
2018-08-16T15:45:09.131Z,25.87
2018-08-16T15:47:38.091Z,25.96
2018-08-16T15:50:07.086Z,25.96
2018-08-16T15:52:36.143Z,26.16
2018-08-16T15:55:06.109Z,26.28
2018-08-16T15:57:35.243Z,26.25
2018-08-16T16:00:07.645Z,26.19
2018-08-16T16:02:37.350Z,26.12
2018-08-16T16:05:13.633Z,26.07
2018-08-16T16:07:41.276Z,26.01
2018-08-16T16:10:10.520Z,25.84
2018-08-16T16:12:39.411Z,25.89
2018-08-16T16:15:09.446Z,25.96
2018-08-16T16:17:38.339Z,25.83
2018-08-16T16:20:07.318Z,25.85
2018-08-16T16:22:36.794Z,25.99
2018-08-16T16:25:06.193Z,26.03
2018-08-16T16:27:35.462Z,26.01
2018-08-16T16:30:05.384Z,25.98
2018-08-16T16:32:34.238Z,26.19
2018-08-16T16:35:03.176Z,26.25
2018-08-16T16:37:31.995Z,26.13
2018-08-16T16:40:00.871Z,25.79
2018-08-16T16:42:29.742Z,25.66
2018-08-16T16:44:58.662Z,25.77
2018-08-16T16:47:27.442Z,25.83
2018-08-16T16:49:56.325Z,25.85
2018-08-16T16:52:25.127Z,25.89
2018-08-16T16:54:53.985Z,25.92
2018-08-16T16:57:22.812Z,25.90
2018-08-16T16:59:51.723Z,25.87
2018-08-16T17:02:20.569Z,25.83
2018-08-16T17:04:49.442Z,25.60
2018-08-16T17:07:18.385Z,25.64
2018-08-16T17:09:47.162Z,25.64
2018-08-16T17:12:15.982Z,25.64
2018-08-16T17:14:44.943Z,25.56
2018-08-16T17:17:13.781Z,25.47
2018-08-16T17:19:42.641Z,25.42
2018-08-16T17:22:11.536Z,25.35
2018-08-16T17:24:40.361Z,25.33
2018-08-16T17:27:09.284Z,25.30
2018-08-16T17:29:38.126Z,25.25
2018-08-16T17:32:07.695Z,25.19
2018-08-16T17:34:36.488Z,25.10
2018-08-16T17:37:05.339Z,25.03
2018-08-16T17:39:34.197Z,24.96
2018-08-16T17:42:03.103Z,24.90
2018-08-16T17:44:31.976Z,24.86
2018-08-16T17:47:00.812Z,25.07
2018-08-16T17:49:29.658Z,24.87
2018-08-16T17:51:58.595Z,24.82
2018-08-16T17:54:27.367Z,24.77
2018-08-16T17:56:56.243Z,24.74
2018-08-16T17:59:25.133Z,24.65
2018-08-16T18:01:53.958Z,24.61
2018-08-16T18:04:22.780Z,24.55
2018-08-16T18:06:51.608Z,24.52
2018-08-16T18:09:20.475Z,24.40
2018-08-16T18:11:49.308Z,24.35
2018-08-16T18:14:18.139Z,24.26
2018-08-16T18:16:46.983Z,24.12
2018-08-16T18:19:15.860Z,24.05
2018-08-16T18:21:44.728Z,24.03
2018-08-16T18:24:13.628Z,23.94
2018-08-16T18:26:42.396Z,23.79
2018-08-16T18:29:11.317Z,23.70
2018-08-16T18:31:40.153Z,23.63
2018-08-16T18:34:08.993Z,23.55
2018-08-16T18:36:37.907Z,23.45
2018-08-16T18:39:08.255Z,23.37
2018-08-16T18:41:37.564Z,23.30
2018-08-16T18:44:06.542Z,23.19
2018-08-16T18:46:35.417Z,23.10
2018-08-16T18:49:04.261Z,22.99
2018-08-16T18:51:33.108Z,22.92
2018-08-16T18:54:01.948Z,22.84
2018-08-16T18:56:30.845Z,22.83
2018-08-16T18:58:59.711Z,22.74
2018-08-16T19:01:28.543Z,22.65
2018-08-16T19:03:57.408Z,22.53
2018-08-16T19:06:26.243Z,22.41
2018-08-16T19:08:55.084Z,22.27
2018-08-16T19:11:23.965Z,22.21
2018-08-16T19:13:52.844Z,22.10
2018-08-16T19:16:21.886Z,21.99
2018-08-16T19:18:50.731Z,21.86
2018-08-16T19:21:19.594Z,21.73
2018-08-16T19:23:48.431Z,21.71
2018-08-16T19:26:17.369Z,21.54
2018-08-16T19:28:46.181Z,21.44
2018-08-16T19:31:14.995Z,21.39
2018-08-16T19:33:43.886Z,21.31
2018-08-16T19:36:12.833Z,21.24
2018-08-16T19:38:41.927Z,21.19
2018-08-16T19:41:10.965Z,21.17
2018-08-16T19:43:39.747Z,21.12
2018-08-16T19:46:08.590Z,21.08
2018-08-16T19:48:37.994Z,21.02
2018-08-16T19:51:07.242Z,20.92
2018-08-16T19:53:36.034Z,20.90
2018-08-16T19:56:05.145Z,20.88
2018-08-16T19:58:34.248Z,20.82
2018-08-16T20:01:03.214Z,20.76
2018-08-16T20:03:32.003Z,20.67
2018-08-16T20:06:00.865Z,20.51
2018-08-16T20:08:29.782Z,20.67
2018-08-16T20:10:58.643Z,20.53
2018-08-16T20:13:27.413Z,20.50
2018-08-16T20:15:56.258Z,20.47
2018-08-16T20:18:25.137Z,20.37
2018-08-16T20:20:53.974Z,20.28
2018-08-16T20:23:22.819Z,20.27
2018-08-16T20:25:51.692Z,20.25
2018-08-16T20:28:20.558Z,20.23
2018-08-16T20:30:49.373Z,20.36
2018-08-16T20:33:18.260Z,20.21
2018-08-16T20:35:47.085Z,20.19
2018-08-16T20:38:15.966Z,20.19
2018-08-16T20:40:44.854Z,20.08
2018-08-16T20:43:13.715Z,20.07
2018-08-16T20:45:42.565Z,19.99
2018-08-16T20:48:11.434Z,20.21
2018-08-16T20:50:40.296Z,19.99
2018-08-16T20:53:09.188Z,19.93
2018-08-16T20:55:38.046Z,19.88
2018-08-16T20:58:06.893Z,19.81
2018-08-16T21:00:35.814Z,19.78
2018-08-16T21:03:04.620Z,19.71
2018-08-16T21:05:33.480Z,19.61
2018-08-16T21:08:02.334Z,19.50
2018-08-16T21:10:33.208Z,19.46
2018-08-16T21:13:02.067Z,19.43
2018-08-16T21:15:30.929Z,19.33
2018-08-16T21:17:59.821Z,19.29
2018-08-16T21:20:28.709Z,19.23
2018-08-16T21:22:57.574Z,19.25
2018-08-16T21:25:26.409Z,19.24
2018-08-16T21:27:55.345Z,19.19
2018-08-16T21:30:24.193Z,19.12
2018-08-16T21:32:53.014Z,19.04
2018-08-16T21:35:21.876Z,19.05
2018-08-16T21:37:50.806Z,19.00
2018-08-16T21:40:19.695Z,18.90
2018-08-16T21:42:48.505Z,18.87
2018-08-16T21:45:17.415Z,18.85
2018-08-16T21:47:46.350Z,18.82
2018-08-16T21:50:15.295Z,18.80
2018-08-16T21:52:44.121Z,18.86
2018-08-16T21:55:12.971Z,18.80
2018-08-16T21:57:41.861Z,18.79
2018-08-16T22:00:11.416Z,18.79
2018-08-16T22:02:40.262Z,18.79
2018-08-16T22:05:09.126Z,18.82
2018-08-16T22:08:13.809Z,18.77
2018-08-16T22:10:43.828Z,18.73
2018-08-16T22:13:12.678Z,18.69
2018-08-16T22:15:41.541Z,18.68
2018-08-16T22:18:10.663Z,18.65
2018-08-16T22:20:39.481Z,18.61
2018-08-16T22:23:08.339Z,18.62
2018-08-16T22:25:37.190Z,18.56
2018-08-16T22:28:06.037Z,18.80
2018-08-16T22:30:34.887Z,18.59
2018-08-16T22:33:03.751Z,18.53
2018-08-16T22:35:32.575Z,18.84
2018-08-16T22:38:01.443Z,18.62
2018-08-16T22:40:30.288Z,18.57
2018-08-16T22:42:59.216Z,18.57
2018-08-16T22:45:27.996Z,18.55
2018-08-16T22:47:56.999Z,18.53
2018-08-16T22:50:25.856Z,18.50
2018-08-16T22:52:54.695Z,18.47
2018-08-16T22:55:23.564Z,18.35
2018-08-16T22:57:52.402Z,18.27
2018-08-16T23:00:21.263Z,18.21
2018-08-16T23:02:50.130Z,18.20
2018-08-16T23:05:19.029Z,18.21
2018-08-16T23:07:47.834Z,18.20
2018-08-16T23:10:16.701Z,18.23
2018-08-16T23:12:45.535Z,18.24
2018-08-16T23:15:14.408Z,18.27
2018-08-16T23:17:43.261Z,18.25
2018-08-16T23:20:12.101Z,18.28
2018-08-16T23:22:41.332Z,18.24
2018-08-16T23:25:10.200Z,18.18
2018-08-16T23:27:39.131Z,18.19
2018-08-16T23:30:13.117Z,18.20
2018-08-16T23:32:42.341Z,18.16
2018-08-16T23:35:11.515Z,18.11
2018-08-16T23:37:40.368Z,18.10
2018-08-16T23:40:11.242Z,18.14
2018-08-16T23:42:40.352Z,18.49
2018-08-16T23:45:09.846Z,18.32
2018-08-16T23:47:38.750Z,18.28
2018-08-16T23:50:09.447Z,18.26
2018-08-16T23:52:38.358Z,18.24
2018-08-16T23:55:08.318Z,18.24
2018-08-16T23:57:37.176Z,18.25
